sensor_id;sensor_type;location;lat;lon;timestamp;P1;durP1;ratioP1;P2;durP2;ratioP2
15216;SDS011;7711;46.634;14.318;2022-08-21T00:01:40;5.90;;;3.53;;
15216;SDS011;7711;46.634;14.318;2022-08-21T00:04:12;5.32;;;3.53;;
15216;SDS011;7711;46.634;14.318;2022-08-21T00:06:39;4.65;;;3.85;;
15216;SDS011;7711;46.634;14.318;2022-08-21T00:09:10;5.80;;;3.80;;
15216;SDS011;7711;46.634;14.318;2022-08-21T00:11:40;4.90;;;3.53;;
15216;SDS011;7711;46.634;14.318;2022-08-21T00:14:10;6.40;;;3.58;;
15216;SDS011;7711;46.634;14.318;2022-08-21T00:16:42;4.00;;;3.60;;
15216;SDS011;7711;46.634;14.318;2022-08-21T00:19:10;3.88;;;3.40;;
15216;SDS011;7711;46.634;14.318;2022-08-21T00:21:39;3.92;;;3.58;;
15216;SDS011;7711;46.634;14.318;2022-08-21T00:24:06;6.35;;;3.63;;
15216;SDS011;7711;46.634;14.318;2022-08-21T00:26:37;5.70;;;3.78;;
15216;SDS011;7711;46.634;14.318;2022-08-21T00:29:04;7.10;;;3.70;;
15216;SDS011;7711;46.634;14.318;2022-08-21T00:31:34;4.75;;;3.72;;
15216;SDS011;7711;46.634;14.318;2022-08-21T00:34:04;4.15;;;3.63;;
15216;SDS011;7711;46.634;14.318;2022-08-21T00:36:33;4.38;;;3.97;;
15216;SDS011;7711;46.634;14.318;2022-08-21T00:39:01;5.05;;;3.83;;
15216;SDS011;7711;46.634;14.318;2022-08-21T00:41:30;3.92;;;3.63;;
15216;SDS011;7711;46.634;14.318;2022-08-21T00:43:57;3.88;;;3.50;;
15216;SDS011;7711;46.634;14.318;2022-08-21T00:46:24;4.22;;;3.47;;
15216;SDS011;7711;46.634;14.318;2022-08-21T00:48:52;5.18;;;3.55;;
15216;SDS011;7711;46.634;14.318;2022-08-21T00:51:20;4.35;;;3.70;;
15216;SDS011;7711;46.634;14.318;2022-08-21T00:53:53;4.03;;;3.65;;
15216;SDS011;7711;46.634;14.318;2022-08-21T00:56:24;5.68;;;3.50;;
15216;SDS011;7711;46.634;14.318;2022-08-21T00:58:55;5.68;;;3.85;;
15216;SDS011;7711;46.634;14.318;2022-08-21T01:01:24;4.80;;;3.83;;
15216;SDS011;7711;46.634;14.318;2022-08-21T01:03:54;3.75;;;3.45;;
15216;SDS011;7711;46.634;14.318;2022-08-21T01:06:21;4.97;;;4.03;;
15216;SDS011;7711;46.634;14.318;2022-08-21T01:08:49;7.45;;;3.95;;
15216;SDS011;7711;46.634;14.318;2022-08-21T01:11:18;3.60;;;3.30;;
15216;SDS011;7711;46.634;14.318;2022-08-21T01:13:46;3.50;;;3.20;;
15216;SDS011;7711;46.634;14.318;2022-08-21T01:16:17;4.22;;;3.50;;
15216;SDS011;7711;46.634;14.318;2022-08-21T01:18:46;4.32;;;3.88;;
15216;SDS011;7711;46.634;14.318;2022-08-21T01:21:17;5.30;;;3.80;;
15216;SDS011;7711;46.634;14.318;2022-08-21T01:23:46;4.05;;;3.75;;
15216;SDS011;7711;46.634;14.318;2022-08-21T01:26:15;3.72;;;3.40;;
15216;SDS011;7711;46.634;14.318;2022-08-21T01:28:47;3.67;;;3.38;;
15216;SDS011;7711;46.634;14.318;2022-08-21T01:31:24;4.43;;;3.63;;
15216;SDS011;7711;46.634;14.318;2022-08-21T01:33:55;3.78;;;3.47;;
15216;SDS011;7711;46.634;14.318;2022-08-21T01:36:25;4.03;;;3.28;;
15216;SDS011;7711;46.634;14.318;2022-08-21T01:38:52;3.85;;;3.50;;
15216;SDS011;7711;46.634;14.318;2022-08-21T01:41:20;4.65;;;3.63;;
15216;SDS011;7711;46.634;14.318;2022-08-21T01:43:50;5.38;;;3.90;;
15216;SDS011;7711;46.634;14.318;2022-08-21T01:46:17;3.60;;;3.30;;
15216;SDS011;7711;46.634;14.318;2022-08-21T01:48:48;4.53;;;3.55;;
15216;SDS011;7711;46.634;14.318;2022-08-21T01:51:17;3.92;;;3.50;;
15216;SDS011;7711;46.634;14.318;2022-08-21T01:53:46;3.85;;;3.38;;
15216;SDS011;7711;46.634;14.318;2022-08-21T01:56:14;4.30;;;3.92;;
15216;SDS011;7711;46.634;14.318;2022-08-21T01:58:43;5.20;;;3.63;;
15216;SDS011;7711;46.634;14.318;2022-08-21T02:01:12;3.80;;;3.40;;
15216;SDS011;7711;46.634;14.318;2022-08-21T02:03:41;3.55;;;3.25;;
15216;SDS011;7711;46.634;14.318;2022-08-21T02:06:12;3.60;;;3.30;;
15216;SDS011;7711;46.634;14.318;2022-08-21T02:08:44;6.68;;;3.20;;
15216;SDS011;7711;46.634;14.318;2022-08-21T02:11:13;3.55;;;3.25;;
15216;SDS011;7711;46.634;14.318;2022-08-21T02:13:43;5.30;;;3.80;;
15216;SDS011;7711;46.634;14.318;2022-08-21T02:16:11;4.55;;;3.70;;
15216;SDS011;7711;46.634;14.318;2022-08-21T02:18:42;4.43;;;3.38;;
15216;SDS011;7711;46.634;14.318;2022-08-21T02:21:09;4.07;;;3.67;;
15216;SDS011;7711;46.634;14.318;2022-08-21T02:23:38;3.83;;;3.50;;
15216;SDS011;7711;46.634;14.318;2022-08-21T02:26:07;3.45;;;3.15;;
15216;SDS011;7711;46.634;14.318;2022-08-21T02:28:37;6.10;;;3.75;;
15216;SDS011;7711;46.634;14.318;2022-08-21T02:31:05;7.00;;;3.55;;
15216;SDS011;7711;46.634;14.318;2022-08-21T02:33:33;3.47;;;3.17;;
15216;SDS011;7711;46.634;14.318;2022-08-21T02:36:03;4.38;;;3.53;;
15216;SDS011;7711;46.634;14.318;2022-08-21T02:38:36;3.45;;;3.15;;
15216;SDS011;7711;46.634;14.318;2022-08-21T02:41:05;3.75;;;3.45;;
15216;SDS011;7711;46.634;14.318;2022-08-21T02:43:35;5.78;;;3.50;;
15216;SDS011;7711;46.634;14.318;2022-08-21T02:46:06;5.97;;;3.83;;
15216;SDS011;7711;46.634;14.318;2022-08-21T02:48:34;3.55;;;3.25;;
15216;SDS011;7711;46.634;14.318;2022-08-21T02:51:03;3.85;;;3.53;;
15216;SDS011;7711;46.634;14.318;2022-08-21T02:53:32;7.95;;;3.50;;
15216;SDS011;7711;46.634;14.318;2022-08-21T02:56:01;3.78;;;3.28;;
15216;SDS011;7711;46.634;14.318;2022-08-21T02:58:39;4.07;;;3.40;;
15216;SDS011;7711;46.634;14.318;2022-08-21T03:01:08;3.78;;;3.30;;
15216;SDS011;7711;46.634;14.318;2022-08-21T03:03:36;3.80;;;3.17;;
15216;SDS011;7711;46.634;14.318;2022-08-21T03:06:06;3.67;;;3.15;;
15216;SDS011;7711;46.634;14.318;2022-08-21T03:08:36;4.88;;;3.45;;
15216;SDS011;7711;46.634;14.318;2022-08-21T03:11:04;4.97;;;3.35;;
15216;SDS011;7711;46.634;14.318;2022-08-21T03:13:39;3.95;;;3.60;;
15216;SDS011;7711;46.634;14.318;2022-08-21T03:16:09;4.88;;;3.22;;
15216;SDS011;7711;46.634;14.318;2022-08-21T03:18:39;5.35;;;3.50;;
15216;SDS011;7711;46.634;14.318;2022-08-21T03:21:07;4.72;;;3.60;;
15216;SDS011;7711;46.634;14.318;2022-08-21T03:23:38;5.13;;;3.30;;
15216;SDS011;7711;46.634;14.318;2022-08-21T03:26:07;3.60;;;3.30;;
15216;SDS011;7711;46.634;14.318;2022-08-21T03:28:40;3.90;;;3.50;;
15216;SDS011;7711;46.634;14.318;2022-08-21T03:31:08;7.35;;;3.58;;
15216;SDS011;7711;46.634;14.318;2022-08-21T03:33:37;4.75;;;3.50;;
15216;SDS011;7711;46.634;14.318;2022-08-21T03:36:06;4.28;;;3.90;;
15216;SDS011;7711;46.634;14.318;2022-08-21T03:38:34;4.05;;;3.10;;
15216;SDS011;7711;46.634;14.318;2022-08-21T03:41:05;4.65;;;3.70;;
15216;SDS011;7711;46.634;14.318;2022-08-21T03:43:38;5.97;;;3.33;;
15216;SDS011;7711;46.634;14.318;2022-08-21T03:46:09;3.40;;;3.10;;
15216;SDS011;7711;46.634;14.318;2022-08-21T03:48:37;3.90;;;3.60;;
15216;SDS011;7711;46.634;14.318;2022-08-21T03:51:05;4.43;;;3.40;;
15216;SDS011;7711;46.634;14.318;2022-08-21T03:53:36;7.30;;;3.53;;
15216;SDS011;7711;46.634;14.318;2022-08-21T03:56:04;4.25;;;3.28;;
15216;SDS011;7711;46.634;14.318;2022-08-21T03:58:32;3.92;;;3.50;;
15216;SDS011;7711;46.634;14.318;2022-08-21T04:01:02;6.07;;;4.10;;
15216;SDS011;7711;46.634;14.318;2022-08-21T04:03:34;5.05;;;3.60;;
15216;SDS011;7711;46.634;14.318;2022-08-21T04:06:02;3.40;;;3.10;;
15216;SDS011;7711;46.634;14.318;2022-08-21T04:08:30;4.10;;;3.70;;
15216;SDS011;7711;46.634;14.318;2022-08-21T04:10:57;6.05;;;3.92;;
15216;SDS011;7711;46.634;14.318;2022-08-21T04:13:25;4.93;;;3.55;;
15216;SDS011;7711;46.634;14.318;2022-08-21T04:15:53;6.68;;;3.65;;
15216;SDS011;7711;46.634;14.318;2022-08-21T04:18:22;7.63;;;3.47;;
15216;SDS011;7711;46.634;14.318;2022-08-21T04:20:52;7.57;;;3.80;;
15216;SDS011;7711;46.634;14.318;2022-08-21T04:23:21;3.50;;;3.08;;
15216;SDS011;7711;46.634;14.318;2022-08-21T04:25:51;4.30;;;3.25;;
15216;SDS011;7711;46.634;14.318;2022-08-21T04:28:19;5.45;;;3.50;;
15216;SDS011;7711;46.634;14.318;2022-08-21T04:30:46;3.78;;;3.40;;
15216;SDS011;7711;46.634;14.318;2022-08-21T04:33:17;5.07;;;3.60;;
15216;SDS011;7711;46.634;14.318;2022-08-21T04:35:47;3.60;;;3.30;;
15216;SDS011;7711;46.634;14.318;2022-08-21T04:38:15;3.50;;;3.13;;
15216;SDS011;7711;46.634;14.318;2022-08-21T04:40:42;6.20;;;3.70;;
15216;SDS011;7711;46.634;14.318;2022-08-21T04:43:14;5.30;;;3.13;;
15216;SDS011;7711;46.634;14.318;2022-08-21T04:45:42;5.65;;;3.30;;
15216;SDS011;7711;46.634;14.318;2022-08-21T04:48:18;3.58;;;2.97;;
15216;SDS011;7711;46.634;14.318;2022-08-21T04:50:49;3.45;;;3.15;;
15216;SDS011;7711;46.634;14.318;2022-08-21T04:53:20;4.60;;;3.42;;
15216;SDS011;7711;46.634;14.318;2022-08-21T04:55:49;5.30;;;3.40;;
15216;SDS011;7711;46.634;14.318;2022-08-21T04:58:19;4.35;;;3.47;;
15216;SDS011;7711;46.634;14.318;2022-08-21T05:00:48;4.57;;;3.45;;
15216;SDS011;7711;46.634;14.318;2022-08-21T05:03:18;3.35;;;3.05;;
15216;SDS011;7711;46.634;14.318;2022-08-21T05:05:46;3.45;;;3.05;;
15216;SDS011;7711;46.634;14.318;2022-08-21T05:08:16;4.28;;;3.10;;
15216;SDS011;7711;46.634;14.318;2022-08-21T05:10:48;3.40;;;2.92;;
15216;SDS011;7711;46.634;14.318;2022-08-21T05:13:15;3.65;;;2.90;;
15216;SDS011;7711;46.634;14.318;2022-08-21T05:15:43;4.72;;;3.20;;
15216;SDS011;7711;46.634;14.318;2022-08-21T05:18:12;2.88;;;2.53;;
15216;SDS011;7711;46.634;14.318;2022-08-21T05:20:40;3.83;;;2.90;;
15216;SDS011;7711;46.634;14.318;2022-08-21T05:23:12;3.78;;;2.80;;
15216;SDS011;7711;46.634;14.318;2022-08-21T05:25:43;4.75;;;3.00;;
15216;SDS011;7711;46.634;14.318;2022-08-21T05:28:12;2.97;;;2.70;;
15216;SDS011;7711;46.634;14.318;2022-08-21T05:30:40;3.17;;;2.88;;
15216;SDS011;7711;46.634;14.318;2022-08-21T05:33:10;3.33;;;3.03;;
15216;SDS011;7711;46.634;14.318;2022-08-21T05:35:37;6.03;;;3.13;;
15216;SDS011;7711;46.634;14.318;2022-08-21T05:38:05;4.28;;;2.75;;
15216;SDS011;7711;46.634;14.318;2022-08-21T05:40:34;3.83;;;2.70;;
15216;SDS011;7711;46.634;14.318;2022-08-21T05:43:04;3.88;;;2.75;;
15216;SDS011;7711;46.634;14.318;2022-08-21T05:45:32;3.80;;;3.30;;
15216;SDS011;7711;46.634;14.318;2022-08-21T05:48:05;3.88;;;3.13;;
15216;SDS011;7711;46.634;14.318;2022-08-21T05:50:33;3.95;;;2.47;;
15216;SDS011;7711;46.634;14.318;2022-08-21T05:53:05;3.17;;;2.90;;
15216;SDS011;7711;46.634;14.318;2022-08-21T05:55:32;4.05;;;3.15;;
15216;SDS011;7711;46.634;14.318;2022-08-21T05:58:07;5.95;;;2.70;;
15216;SDS011;7711;46.634;14.318;2022-08-21T06:00:36;10.38;;;3.08;;
15216;SDS011;7711;46.634;14.318;2022-08-21T06:03:03;3.45;;;3.15;;
15216;SDS011;7711;46.634;14.318;2022-08-21T06:05:30;4.85;;;3.00;;
15216;SDS011;7711;46.634;14.318;2022-08-21T06:08:00;4.32;;;2.90;;
15216;SDS011;7711;46.634;14.318;2022-08-21T06:10:28;3.10;;;2.80;;
15216;SDS011;7711;46.634;14.318;2022-08-21T06:12:59;3.63;;;2.65;;
15216;SDS011;7711;46.634;14.318;2022-08-21T06:15:28;2.90;;;2.70;;
15216;SDS011;7711;46.634;14.318;2022-08-21T06:17:58;2.83;;;2.53;;
15216;SDS011;7711;46.634;14.318;2022-08-21T06:20:26;5.93;;;2.67;;
15216;SDS011;7711;46.634;14.318;2022-08-21T06:22:55;3.75;;;2.70;;
15216;SDS011;7711;46.634;14.318;2022-08-21T06:25:24;3.63;;;2.60;;
15216;SDS011;7711;46.634;14.318;2022-08-21T06:27:51;3.70;;;2.50;;
15216;SDS011;7711;46.634;14.318;2022-08-21T06:30:28;2.80;;;2.50;;
15216;SDS011;7711;46.634;14.318;2022-08-21T06:32:55;3.10;;;2.20;;
15216;SDS011;7711;46.634;14.318;2022-08-21T06:35:22;3.20;;;2.58;;
15216;SDS011;7711;46.634;14.318;2022-08-21T06:37:50;3.00;;;2.45;;
15216;SDS011;7711;46.634;14.318;2022-08-21T06:40:20;3.90;;;2.20;;
15216;SDS011;7711;46.634;14.318;2022-08-21T06:42:48;3.33;;;2.47;;
15216;SDS011;7711;46.634;14.318;2022-08-21T06:45:17;3.95;;;2.50;;
15216;SDS011;7711;46.634;14.318;2022-08-21T06:47:55;2.42;;;2.13;;
15216;SDS011;7711;46.634;14.318;2022-08-21T06:50:24;2.83;;;2.28;;
15216;SDS011;7711;46.634;14.318;2022-08-21T06:52:59;2.63;;;2.42;;
15216;SDS011;7711;46.634;14.318;2022-08-21T06:55:27;3.08;;;2.40;;
15216;SDS011;7711;46.634;14.318;2022-08-21T06:57:58;2.50;;;2.30;;
15216;SDS011;7711;46.634;14.318;2022-08-21T07:00:25;3.05;;;2.55;;
15216;SDS011;7711;46.634;14.318;2022-08-21T07:02:54;2.60;;;2.40;;
15216;SDS011;7711;46.634;14.318;2022-08-21T07:05:22;2.60;;;2.40;;
15216;SDS011;7711;46.634;14.318;2022-08-21T07:07:52;2.58;;;2.33;;
15216;SDS011;7711;46.634;14.318;2022-08-21T07:10:23;3.53;;;2.40;;
15216;SDS011;7711;46.634;14.318;2022-08-21T07:12:50;4.90;;;2.63;;
15216;SDS011;7711;46.634;14.318;2022-08-21T07:15:19;2.50;;;2.30;;
15216;SDS011;7711;46.634;14.318;2022-08-21T07:17:46;4.50;;;2.55;;
15216;SDS011;7711;46.634;14.318;2022-08-21T07:20:17;4.07;;;2.45;;
15216;SDS011;7711;46.634;14.318;2022-08-21T07:22:44;2.50;;;2.25;;
15216;SDS011;7711;46.634;14.318;2022-08-21T07:25:14;2.33;;;2.13;;
15216;SDS011;7711;46.634;14.318;2022-08-21T07:27:41;2.55;;;2.35;;
15216;SDS011;7711;46.634;14.318;2022-08-21T07:30:11;2.63;;;2.42;;
15216;SDS011;7711;46.634;14.318;2022-08-21T07:32:39;3.88;;;2.28;;
15216;SDS011;7711;46.634;14.318;2022-08-21T07:35:06;2.40;;;2.17;;
15216;SDS011;7711;46.634;14.318;2022-08-21T07:37:35;4.30;;;2.45;;
15216;SDS011;7711;46.634;14.318;2022-08-21T07:40:06;5.22;;;2.42;;
15216;SDS011;7711;46.634;14.318;2022-08-21T07:42:34;3.67;;;2.00;;
15216;SDS011;7711;46.634;14.318;2022-08-21T07:45:06;2.55;;;1.92;;
15216;SDS011;7711;46.634;14.318;2022-08-21T07:47:34;2.00;;;1.90;;
15216;SDS011;7711;46.634;14.318;2022-08-21T07:50:01;2.47;;;1.80;;
15216;SDS011;7711;46.634;14.318;2022-08-21T07:52:29;2.58;;;2.10;;
15216;SDS011;7711;46.634;14.318;2022-08-21T07:54:57;3.22;;;2.30;;
15216;SDS011;7711;46.634;14.318;2022-08-21T07:57:25;3.25;;;2.10;;
15216;SDS011;7711;46.634;14.318;2022-08-21T07:59:53;2.30;;;2.10;;
15216;SDS011;7711;46.634;14.318;2022-08-21T08:02:21;3.10;;;1.92;;
15216;SDS011;7711;46.634;14.318;2022-08-21T08:04:51;2.20;;;2.00;;
15216;SDS011;7711;46.634;14.318;2022-08-21T08:07:19;1.85;;;1.75;;
15216;SDS011;7711;46.634;14.318;2022-08-21T08:09:48;3.60;;;2.03;;
15216;SDS011;7711;46.634;14.318;2022-08-21T08:12:17;3.25;;;2.10;;
15216;SDS011;7711;46.634;14.318;2022-08-21T08:14:45;2.72;;;1.95;;
15216;SDS011;7711;46.634;14.318;2022-08-21T08:17:12;2.03;;;1.92;;
15216;SDS011;7711;46.634;14.318;2022-08-21T08:19:39;2.00;;;1.90;;
15216;SDS011;7711;46.634;14.318;2022-08-21T08:22:14;2.40;;;2.20;;
15216;SDS011;7711;46.634;14.318;2022-08-21T08:24:45;2.53;;;1.95;;
15216;SDS011;7711;46.634;14.318;2022-08-21T08:27:14;3.78;;;1.90;;
15216;SDS011;7711;46.634;14.318;2022-08-21T08:29:45;2.20;;;2.00;;
15216;SDS011;7711;46.634;14.318;2022-08-21T08:32:13;2.50;;;1.80;;
15216;SDS011;7711;46.634;14.318;2022-08-21T08:34:43;2.00;;;1.85;;
15216;SDS011;7711;46.634;14.318;2022-08-21T08:37:13;2.10;;;1.90;;
15216;SDS011;7711;46.634;14.318;2022-08-21T08:39:41;2.17;;;2.00;;
15216;SDS011;7711;46.634;14.318;2022-08-21T08:42:10;2.20;;;2.00;;
15216;SDS011;7711;46.634;14.318;2022-08-21T08:44:41;2.00;;;1.80;;
15216;SDS011;7711;46.634;14.318;2022-08-21T08:47:09;2.10;;;2.00;;
15216;SDS011;7711;46.634;14.318;2022-08-21T08:49:42;3.45;;;2.20;;
15216;SDS011;7711;46.634;14.318;2022-08-21T08:52:19;2.58;;;1.80;;
15216;SDS011;7711;46.634;14.318;2022-08-21T08:54:49;2.10;;;1.90;;
15216;SDS011;7711;46.634;14.318;2022-08-21T08:57:25;2.03;;;1.83;;
15216;SDS011;7711;46.634;14.318;2022-08-21T08:59:55;2.78;;;1.83;;
15216;SDS011;7711;46.634;14.318;2022-08-21T09:02:27;2.00;;;1.80;;
15216;SDS011;7711;46.634;14.318;2022-08-21T09:04:54;2.03;;;1.92;;
15216;SDS011;7711;46.634;14.318;2022-08-21T09:07:28;3.08;;;1.98;;
15216;SDS011;7711;46.634;14.318;2022-08-21T09:10:06;2.10;;;2.00;;
15216;SDS011;7711;46.634;14.318;2022-08-21T09:12:42;3.60;;;1.80;;
15216;SDS011;7711;46.634;14.318;2022-08-21T09:15:22;2.03;;;1.88;;
15216;SDS011;7711;46.634;14.318;2022-08-21T09:20:46;3.88;;;1.70;;
15216;SDS011;7711;46.634;14.318;2022-08-21T09:23:25;1.95;;;1.85;;
15216;SDS011;7711;46.634;14.318;2022-08-21T09:26:02;2.38;;;1.80;;
15216;SDS011;7711;46.634;14.318;2022-08-21T09:28:34;1.83;;;1.70;;
15216;SDS011;7711;46.634;14.318;2022-08-21T09:31:05;5.47;;;1.60;;
15216;SDS011;7711;46.634;14.318;2022-08-21T09:33:33;1.80;;;1.70;;
15216;SDS011;7711;46.634;14.318;2022-08-21T09:36:01;1.83;;;1.73;;
15216;SDS011;7711;46.634;14.318;2022-08-21T09:38:32;2.03;;;1.92;;
15216;SDS011;7711;46.634;14.318;2022-08-21T09:41:07;2.13;;;1.80;;
15216;SDS011;7711;46.634;14.318;2022-08-21T09:43:36;1.73;;;1.63;;
15216;SDS011;7711;46.634;14.318;2022-08-21T09:46:07;2.75;;;1.60;;
15216;SDS011;7711;46.634;14.318;2022-08-21T09:48:40;1.67;;;1.58;;
15216;SDS011;7711;46.634;14.318;2022-08-21T09:51:10;1.65;;;1.50;;
15216;SDS011;7711;46.634;14.318;2022-08-21T09:53:42;1.60;;;1.50;;
15216;SDS011;7711;46.634;14.318;2022-08-21T09:56:17;1.60;;;1.50;;
15216;SDS011;7711;46.634;14.318;2022-08-21T09:59:18;2.10;;;1.90;;
15216;SDS011;7711;46.634;14.318;2022-08-21T10:01:54;2.47;;;1.60;;
15216;SDS011;7711;46.634;14.318;2022-08-21T10:04:23;1.60;;;1.50;;
15216;SDS011;7711;46.634;14.318;2022-08-21T10:07:05;2.47;;;1.60;;
15216;SDS011;7711;46.634;14.318;2022-08-21T10:09:33;1.73;;;1.63;;
15216;SDS011;7711;46.634;14.318;2022-08-21T10:12:09;2.60;;;1.30;;
15216;SDS011;7711;46.634;14.318;2022-08-21T10:14:45;2.17;;;1.63;;
15216;SDS011;7711;46.634;14.318;2022-08-21T10:17:26;1.70;;;1.60;;
15216;SDS011;7711;46.634;14.318;2022-08-21T10:19:59;1.77;;;1.50;;
15216;SDS011;7711;46.634;14.318;2022-08-21T10:22:34;1.75;;;1.65;;
15216;SDS011;7711;46.634;14.318;2022-08-21T10:25:09;1.67;;;1.58;;
15216;SDS011;7711;46.634;14.318;2022-08-21T10:27:46;1.50;;;1.40;;
15216;SDS011;7711;46.634;14.318;2022-08-21T10:30:28;1.75;;;1.60;;
15216;SDS011;7711;46.634;14.318;2022-08-21T10:35:54;1.90;;;1.70;;
15216;SDS011;7711;46.634;14.318;2022-08-21T10:38:41;2.60;;;1.60;;
15216;SDS011;7711;46.634;14.318;2022-08-21T10:41:35;3.72;;;1.77;;
15216;SDS011;7711;46.634;14.318;2022-08-21T10:44:21;1.83;;;1.73;;
15216;SDS011;7711;46.634;14.318;2022-08-21T10:46:57;1.75;;;1.65;;
15216;SDS011;7711;46.634;14.318;2022-08-21T10:49:32;2.47;;;1.80;;
15216;SDS011;7711;46.634;14.318;2022-08-21T10:52:09;1.70;;;1.60;;
15216;SDS011;7711;46.634;14.318;2022-08-21T10:54:56;2.08;;;1.98;;
15216;SDS011;7711;46.634;14.318;2022-08-21T10:57:33;1.98;;;1.80;;
15216;SDS011;7711;46.634;14.318;2022-08-21T11:00:09;2.28;;;2.08;;
15216;SDS011;7711;46.634;14.318;2022-08-21T11:02:40;3.17;;;2.00;;
15216;SDS011;7711;46.634;14.318;2022-08-21T11:05:15;1.90;;;1.80;;
15216;SDS011;7711;46.634;14.318;2022-08-21T11:07:48;1.80;;;1.70;;
15216;SDS011;7711;46.634;14.318;2022-08-21T11:10:22;2.55;;;1.80;;
15216;SDS011;7711;46.634;14.318;2022-08-21T11:12:52;2.83;;;1.70;;
15216;SDS011;7711;46.634;14.318;2022-08-21T11:15:33;2.75;;;2.00;;
15216;SDS011;7711;46.634;14.318;2022-08-21T11:18:10;2.15;;;1.95;;
15216;SDS011;7711;46.634;14.318;2022-08-21T11:20:46;2.28;;;2.08;;
15216;SDS011;7711;46.634;14.318;2022-08-21T11:23:19;2.22;;;2.03;;
15216;SDS011;7711;46.634;14.318;2022-08-21T11:25:52;2.85;;;1.85;;
15216;SDS011;7711;46.634;14.318;2022-08-21T11:28:28;1.95;;;1.85;;
15216;SDS011;7711;46.634;14.318;2022-08-21T11:31:04;2.97;;;1.88;;
15216;SDS011;7711;46.634;14.318;2022-08-21T11:33:45;2.67;;;1.92;;
15216;SDS011;7711;46.634;14.318;2022-08-21T11:36:26;2.10;;;1.90;;
15216;SDS011;7711;46.634;14.318;2022-08-21T11:39:00;3.15;;;2.20;;
15216;SDS011;7711;46.634;14.318;2022-08-21T11:41:36;2.35;;;2.13;;
15216;SDS011;7711;46.634;14.318;2022-08-21T11:44:13;2.03;;;1.92;;
15216;SDS011;7711;46.634;14.318;2022-08-21T11:46:47;2.42;;;2.10;;
15216;SDS011;7711;46.634;14.318;2022-08-21T11:49:22;3.33;;;2.10;;
15216;SDS011;7711;46.634;14.318;2022-08-21T11:52:10;2.20;;;2.00;;
15216;SDS011;7711;46.634;14.318;2022-08-21T11:54:44;3.20;;;2.00;;
15216;SDS011;7711;46.634;14.318;2022-08-21T11:57:20;2.13;;;1.92;;
15216;SDS011;7711;46.634;14.318;2022-08-21T11:59:53;2.35;;;1.88;;
15216;SDS011;7711;46.634;14.318;2022-08-21T12:02:28;2.55;;;1.90;;
15216;SDS011;7711;46.634;14.318;2022-08-21T12:04:59;3.10;;;1.92;;
15216;SDS011;7711;46.634;14.318;2022-08-21T12:07:33;1.90;;;1.80;;
15216;SDS011;7711;46.634;14.318;2022-08-21T12:10:05;2.30;;;2.10;;
15216;SDS011;7711;46.634;14.318;2022-08-21T12:12:39;2.00;;;1.90;;
15216;SDS011;7711;46.634;14.318;2022-08-21T12:15:16;2.75;;;1.95;;
15216;SDS011;7711;46.634;14.318;2022-08-21T12:17:56;2.40;;;2.17;;
15216;SDS011;7711;46.634;14.318;2022-08-21T12:20:32;2.90;;;2.10;;
15216;SDS011;7711;46.634;14.318;2022-08-21T12:23:24;2.20;;;2.00;;
15216;SDS011;7711;46.634;14.318;2022-08-21T12:26:01;3.03;;;1.90;;
15216;SDS011;7711;46.634;14.318;2022-08-21T12:28:44;2.25;;;2.05;;
15216;SDS011;7711;46.634;14.318;2022-08-21T12:31:21;2.03;;;1.83;;
15216;SDS011;7711;46.634;14.318;2022-08-21T12:33:51;1.80;;;1.70;;
15216;SDS011;7711;46.634;14.318;2022-08-21T12:36:23;2.10;;;1.90;;
15216;SDS011;7711;46.634;14.318;2022-08-21T12:38:59;2.10;;;2.00;;
15216;SDS011;7711;46.634;14.318;2022-08-21T12:41:32;2.80;;;1.90;;
15216;SDS011;7711;46.634;14.318;2022-08-21T12:44:05;2.28;;;2.00;;
15216;SDS011;7711;46.634;14.318;2022-08-21T12:46:39;2.20;;;2.00;;
15216;SDS011;7711;46.634;14.318;2022-08-21T12:49:14;2.58;;;2.10;;
15216;SDS011;7711;46.634;14.318;2022-08-21T12:51:49;2.22;;;2.03;;
15216;SDS011;7711;46.634;14.318;2022-08-21T12:54:27;2.30;;;2.10;;
15216;SDS011;7711;46.634;14.318;2022-08-21T12:56:57;2.00;;;1.90;;
15216;SDS011;7711;46.634;14.318;2022-08-21T12:59:28;2.20;;;2.00;;
15216;SDS011;7711;46.634;14.318;2022-08-21T13:01:58;1.90;;;1.80;;
15216;SDS011;7711;46.634;14.318;2022-08-21T13:04:32;2.35;;;2.10;;
15216;SDS011;7711;46.634;14.318;2022-08-21T13:07:05;2.30;;;2.10;;
15216;SDS011;7711;46.634;14.318;2022-08-21T13:09:39;2.50;;;2.30;;
15216;SDS011;7711;46.634;14.318;2022-08-21T13:12:12;2.40;;;2.20;;
15216;SDS011;7711;46.634;14.318;2022-08-21T13:14:44;2.38;;;2.17;;
15216;SDS011;7711;46.634;14.318;2022-08-21T13:17:16;2.35;;;2.15;;
15216;SDS011;7711;46.634;14.318;2022-08-21T13:19:52;2.40;;;2.20;;
15216;SDS011;7711;46.634;14.318;2022-08-21T13:22:21;2.92;;;2.40;;
15216;SDS011;7711;46.634;14.318;2022-08-21T13:24:50;2.50;;;2.30;;
15216;SDS011;7711;46.634;14.318;2022-08-21T13:27:19;3.08;;;2.30;;
15216;SDS011;7711;46.634;14.318;2022-08-21T13:29:48;2.50;;;2.25;;
15216;SDS011;7711;46.634;14.318;2022-08-21T13:32:28;2.90;;;2.60;;
15216;SDS011;7711;46.634;14.318;2022-08-21T13:34:58;2.80;;;2.58;;
15216;SDS011;7711;46.634;14.318;2022-08-21T13:37:34;3.15;;;2.38;;
15216;SDS011;7711;46.634;14.318;2022-08-21T13:40:09;2.78;;;2.55;;
15216;SDS011;7711;46.634;14.318;2022-08-21T13:42:42;2.40;;;2.20;;
15216;SDS011;7711;46.634;14.318;2022-08-21T13:45:12;2.80;;;2.60;;
15216;SDS011;7711;46.634;14.318;2022-08-21T13:47:49;3.92;;;2.55;;
15216;SDS011;7711;46.634;14.318;2022-08-21T13:50:18;2.78;;;2.58;;
15216;SDS011;7711;46.634;14.318;2022-08-21T13:52:54;2.63;;;2.22;;
15216;SDS011;7711;46.634;14.318;2022-08-21T13:55:33;2.33;;;2.13;;
15216;SDS011;7711;46.634;14.318;2022-08-21T13:58:02;2.50;;;2.30;;
15216;SDS011;7711;46.634;14.318;2022-08-21T14:00:32;3.58;;;2.42;;
15216;SDS011;7711;46.634;14.318;2022-08-21T14:03:03;2.47;;;2.28;;
15216;SDS011;7711;46.634;14.318;2022-08-21T14:05:36;2.92;;;2.60;;
15216;SDS011;7711;46.634;14.318;2022-08-21T14:08:10;2.60;;;2.40;;
15216;SDS011;7711;46.634;14.318;2022-08-21T14:10:42;4.30;;;2.50;;
15216;SDS011;7711;46.634;14.318;2022-08-21T14:13:21;2.50;;;2.30;;
15216;SDS011;7711;46.634;14.318;2022-08-21T14:16:01;2.70;;;2.50;;
15216;SDS011;7711;46.634;14.318;2022-08-21T14:18:48;2.83;;;2.47;;
15216;SDS011;7711;46.634;14.318;2022-08-21T14:21:27;2.58;;;2.38;;
15216;SDS011;7711;46.634;14.318;2022-08-21T14:24:04;3.00;;;2.20;;
15216;SDS011;7711;46.634;14.318;2022-08-21T14:26:37;2.42;;;2.22;;
15216;SDS011;7711;46.634;14.318;2022-08-21T14:29:11;3.03;;;2.55;;
15216;SDS011;7711;46.634;14.318;2022-08-21T14:31:47;2.75;;;2.50;;
15216;SDS011;7711;46.634;14.318;2022-08-21T14:34:20;2.72;;;2.53;;
15216;SDS011;7711;46.634;14.318;2022-08-21T14:36:51;3.28;;;2.97;;
15216;SDS011;7711;46.634;14.318;2022-08-21T14:39:19;2.85;;;2.60;;
15216;SDS011;7711;46.634;14.318;2022-08-21T14:41:48;4.88;;;2.60;;
15216;SDS011;7711;46.634;14.318;2022-08-21T14:44:16;2.75;;;2.55;;
15216;SDS011;7711;46.634;14.318;2022-08-21T14:46:44;2.58;;;2.38;;
15216;SDS011;7711;46.634;14.318;2022-08-21T14:49:15;2.80;;;2.50;;
15216;SDS011;7711;46.634;14.318;2022-08-21T14:51:42;2.45;;;2.25;;
15216;SDS011;7711;46.634;14.318;2022-08-21T14:54:09;2.90;;;2.47;;
15216;SDS011;7711;46.634;14.318;2022-08-21T14:56:37;2.65;;;2.42;;
15216;SDS011;7711;46.634;14.318;2022-08-21T14:59:07;4.45;;;2.53;;
15216;SDS011;7711;46.634;14.318;2022-08-21T15:01:38;2.80;;;2.60;;
15216;SDS011;7711;46.634;14.318;2022-08-21T15:04:13;2.40;;;2.20;;
15216;SDS011;7711;46.634;14.318;2022-08-21T15:06:40;4.53;;;2.50;;
15216;SDS011;7711;46.634;14.318;2022-08-21T15:09:09;3.53;;;2.55;;
15216;SDS011;7711;46.634;14.318;2022-08-21T15:11:38;3.10;;;2.42;;
15216;SDS011;7711;46.634;14.318;2022-08-21T15:14:11;2.60;;;2.40;;
15216;SDS011;7711;46.634;14.318;2022-08-21T15:16:45;2.80;;;2.60;;
15216;SDS011;7711;46.634;14.318;2022-08-21T15:19:13;3.05;;;2.58;;